Castle Valley, Utah
Current Conditions -  °F | °C
As of 1:53 PM on Friday 28 Nov 2014 (Local Time) from KCNY Reporting Station
Clear Clear  
Wind Chill: 11°   Ceiling: Unl
Heat Index: 11°   Visibility: 10mi
Dew Point: -5°   Wind: 3mph
Humidity: 32%   Direction: NA
Pressure: 30.06"   Gusts: NA
Location:  38.6903°N, 109.256°W
Report Text: KCNY 282053Z AUTO VRB03KT 10SM CLR 11/M05 A3006 RMK AO2 SLP181 T01111050 56036
Loading
Personal Weather Stations






























Interactive Weather Map New forecast layout! Learn more

10-Day Weather Forecast

Advertisements
Track Severe Weather on mobile